Terminal Aerodrome Forecast
Issued by NWS Charleston, WV

Home | Current Version | Previous Version | Text Only | Print | Product List | Glossary On
Versions: 1 2 3 4 5 6 7 8 9 10 11 12 13 14 15 16 17 18 19 20
000
FTUS41 KRLX 181700
TAFPKB
TAF
KPKB 181732Z 1818/1918 01005KT P6SM SCT045
     FM190500 00000KT 4SM BR FEW200
     FM190700 00000KT 1/2SM FG VV001
     FM191300 00000KT 1 1/2SM BR SCT250
     FM191330 VRB03KT P6SM FEW045=

USA.gov is the U.S. government's official web portal to all federal, state and local government web resources and services.